Terminal Aerodrome Forecast
Issued by NWS Houston/Galveston, TX

Home | Current Version | Previous Version | Text Only | Print | Product List | Glossary On
Versions: 1 2 3 4 5 6 7 8 9 10 11 12 13 14 15 16 17 18 19 20 21 22 23 24 25 26 27 28 29 30 31 32 33
000
FTUS44 KHGX 060520
TAFCLL
TAF
KCLL 060520Z 0606/0706 14014KT P6SM VCTS SCT030CB
      TEMPO 0606/0609 6SM -TSRA BR BKN025CB
     FM061000 15012KT P6SM SCT025
     FM061900 14015G25KT P6SM VCTS SCT025 BKN040CB
     FM070200 14012KT P6SM SCT020=

USA.gov is the U.S. government's official web portal to all federal, state and local government web resources and services.